Fairman, Illinois
Current Conditions -  °F | °C
As of 10:55 PM on Saturday 20 Dec 2014 (Local Time) from KSLO Reporting Station
Overcast Overcast  
Wind Chill: 33°   Ceiling: 2900
Heat Index: 37°   Visibility: 10mi
Dew Point: 30°   Wind: 6mph
Humidity: 74%   Direction: 130°SE
Pressure: 30.28"   Gusts: NA
Location:  38.663°N, 89.0946°W
Report Text: KSLO 210455Z AUTO 13005KT 10SM OVC029 03/M01 A3028 RMK AO2 T00301012
Loading
Personal Weather Stations






























Interactive Weather Map New forecast layout! Learn more

10-Day Weather Forecast

Advertisements
Track Severe Weather on mobile